<?xml version="1.0" encoding="UTF-8" standalone="no" ?>
<gpx xmlns="http://www.topografix.com/GPX/1/1" xmlns:xsi="http://www.w3.org/2001/XMLSchema-instance" xsi:schemaLocation="http://www.topografix.com/GPX/1/1 http://www.topografix.com/GPX/1/1/gpx.xsd" version="1.1" creator="VisuGPX - https://www.visugpx.com">
  <metadata>
    <name>TAHITI - PEDESTRE - Raiatea - Mont Tapioi</name>
    <desc><![CDATA[Soleil chaleur beauté magnifique sont les caractéristiques de cette sortie]]></desc>
  </metadata>
  <wpt lat="-16.73302" lon="-151.4523">
    <ele>297.411255</ele>
    <name><![CDATA[Tapioi]]></name>
    <desc><![CDATA[13-MAI-12 9:38:42]]></desc>
  </wpt>
  <trk>
    <name><![CDATA[ACTIVE LOG 009]]></name>
    <trkseg>
      <trkpt lat="-16.72777" lon="-151.44593">
        <ele>17.921753</ele>
        <time>2012-05-13T19:27:54Z</time>
      </trkpt>
      <trkpt lat="-16.72777" lon="-151.44594">
        <ele>17.441162</ele>
        <time>2012-05-13T19:27:55Z</time>
      </trkpt>
      <trkpt lat="-16.72777" lon="-151.44594">
        <ele>17.441162</ele>
        <time>2012-05-13T19:27:56Z</time>
      </trkpt>
      <trkpt lat="-16.72778" lon="-151.44596">
        <ele>17.921753</ele>
        <time>2012-05-13T19:28:02Z</time>
      </trkpt>
      <trkpt lat="-16.72798" lon="-151.44612">
        <ele>17.921753</ele>
        <time>2012-05-13T19:28:23Z</time>
      </trkpt>
      <trkpt lat="-16.72811" lon="-151.44622">
        <ele>17.921753</ele>
        <time>2012-05-13T19:28:36Z</time>
      </trkpt>
      <trkpt lat="-16.72827" lon="-151.44635">
        <ele>18.883057</ele>
        <time>2012-05-13T19:28:52Z</time>
      </trkpt>
      <trkpt lat="-16.72829" lon="-151.44638">
        <ele>19.36377</ele>
        <time>2012-05-13T19:28:55Z</time>
      </trkpt>
      <trkpt lat="-16.72838" lon="-151.44644">
        <ele>17.921753</ele>
        <time>2012-05-13T19:29:03Z</time>
      </trkpt>
      <trkpt lat="-16.72845" lon="-151.44647">
        <ele>17.441162</ele>
        <time>2012-05-13T19:29:09Z</time>
      </trkpt>
      <trkpt lat="-16.72849" lon="-151.4465">
        <ele>17.441162</ele>
        <time>2012-05-13T19:29:12Z</time>
      </trkpt>
      <trkpt lat="-16.72851" lon="-151.44651">
        <ele>17.921753</ele>
        <time>2012-05-13T19:29:15Z</time>
      </trkpt>
      <trkpt lat="-16.72853" lon="-151.44653">
        <ele>17.441162</ele>
        <time>2012-05-13T19:29:18Z</time>
      </trkpt>
      <trkpt lat="-16.72863" lon="-151.44662">
        <ele>18.402344</ele>
        <time>2012-05-13T19:29:28Z</time>
      </trkpt>
      <trkpt lat="-16.72865" lon="-151.44665">
        <ele>17.921753</ele>
        <time>2012-05-13T19:29:32Z</time>
      </trkpt>
      <trkpt lat="-16.72865" lon="-151.44678">
        <ele>17.441162</ele>
        <time>2012-05-13T19:29:43Z</time>
      </trkpt>
      <trkpt lat="-16.72866" lon="-151.4467">
        <ele>18.883057</ele>
        <time>2012-05-13T19:29:54Z</time>
      </trkpt>
      <trkpt lat="-16.72866" lon="-151.44678">
        <ele>18.402344</ele>
        <time>2012-05-13T19:29:59Z</time>
      </trkpt>
      <trkpt lat="-16.72868" lon="-151.44694">
        <ele>18.402344</ele>
        <time>2012-05-13T19:30:11Z</time>
      </trkpt>
      <trkpt lat="-16.72879" lon="-151.447">
        <ele>18.883057</ele>
        <time>2012-05-13T19:30:20Z</time>
      </trkpt>
      <trkpt lat="-16.72886" lon="-151.44705">
        <ele>18.402344</ele>
        <time>2012-05-13T19:30:27Z</time>
      </trkpt>
      <trkpt lat="-16.72899" lon="-151.44714">
        <ele>19.36377</ele>
        <time>2012-05-13T19:30:39Z</time>
      </trkpt>
      <trkpt lat="-16.72904" lon="-151.44717">
        <ele>18.883057</ele>
        <time>2012-05-13T19:30:43Z</time>
      </trkpt>
      <trkpt lat="-16.72907" lon="-151.44719">
        <ele>20.805664</ele>
        <time>2012-05-13T19:30:46Z</time>
      </trkpt>
      <trkpt lat="-16.72925" lon="-151.44722">
        <ele>20.805664</ele>
        <time>2012-05-13T19:31:03Z</time>
      </trkpt>
      <trkpt lat="-16.72945" lon="-151.44726">
        <ele>21.766968</ele>
        <time>2012-05-13T19:31:19Z</time>
      </trkpt>
      <trkpt lat="-16.72964" lon="-151.44733">
        <ele>23.208984</ele>
        <time>2012-05-13T19:31:36Z</time>
      </trkpt>
      <trkpt lat="-16.7298" lon="-151.44739">
        <ele>24.170288</ele>
        <time>2012-05-13T19:31:51Z</time>
      </trkpt>
      <trkpt lat="-16.72984" lon="-151.4474">
        <ele>23.689575</ele>
        <time>2012-05-13T19:31:55Z</time>
      </trkpt>
      <trkpt lat="-16.73006" lon="-151.44744">
        <ele>24.651001</ele>
        <time>2012-05-13T19:32:13Z</time>
      </trkpt>
      <trkpt lat="-16.73017" lon="-151.44746">
        <ele>26.092896</ele>
        <time>2012-05-13T19:32:29Z</time>
      </trkpt>
      <trkpt lat="-16.73036" lon="-151.44747">
        <ele>28.976929</ele>
        <time>2012-05-13T19:32:44Z</time>
      </trkpt>
      <trkpt lat="-16.73052" lon="-151.44748">
        <ele>30.418823</ele>
        <time>2012-05-13T19:32:57Z</time>
      </trkpt>
      <trkpt lat="-16.73074" lon="-151.44751">
        <ele>32.822266</ele>
        <time>2012-05-13T19:33:16Z</time>
      </trkpt>
      <trkpt lat="-16.73092" lon="-151.4475">
        <ele>34.744873</ele>
        <time>2012-05-13T19:33:31Z</time>
      </trkpt>
      <trkpt lat="-16.73119" lon="-151.44747">
        <ele>36.66748</ele>
        <time>2012-05-13T19:33:51Z</time>
      </trkpt>
      <trkpt lat="-16.73138" lon="-151.44751">
        <ele>39.55127</ele>
        <time>2012-05-13T19:34:09Z</time>
      </trkpt>
      <trkpt lat="-16.73146" lon="-151.44757">
        <ele>41.473999</ele>
        <time>2012-05-13T19:34:24Z</time>
      </trkpt>
      <trkpt lat="-16.73152" lon="-151.44759">
        <ele>43.877319</ele>
        <time>2012-05-13T19:34:35Z</time>
      </trkpt>
      <trkpt lat="-16.73153" lon="-151.44759">
        <ele>43.877319</ele>
        <time>2012-05-13T19:34:36Z</time>
      </trkpt>
      <trkpt lat="-16.7316" lon="-151.44767">
        <ele>44.358032</ele>
        <time>2012-05-13T19:34:47Z</time>
      </trkpt>
      <trkpt lat="-16.73159" lon="-151.44769">
        <ele>44.358032</ele>
        <time>2012-05-13T19:35:12Z</time>
      </trkpt>
      <trkpt lat="-16.73161" lon="-151.4477">
        <ele>43.877319</ele>
        <time>2012-05-13T19:35:14Z</time>
      </trkpt>
      <trkpt lat="-16.7316" lon="-151.44768">
        <ele>44.358032</ele>
        <time>2012-05-13T19:35:28Z</time>
      </trkpt>
      <trkpt lat="-16.73156" lon="-151.44765">
        <ele>44.838623</ele>
        <time>2012-05-13T19:35:38Z</time>
      </trkpt>
      <trkpt lat="-16.73147" lon="-151.44761">
        <ele>42.435425</ele>
        <time>2012-05-13T19:35:52Z</time>
      </trkpt>
      <trkpt lat="-16.73146" lon="-151.44761">
        <ele>41.954712</ele>
        <time>2012-05-13T19:35:53Z</time>
      </trkpt>
      <trkpt lat="-16.73145" lon="-151.44758">
        <ele>43.396606</ele>
        <time>2012-05-13T19:35:58Z</time>
      </trkpt>
      <trkpt lat="-16.73133" lon="-151.44769">
        <ele>43.396606</ele>
        <time>2012-05-13T19:36:11Z</time>
      </trkpt>
      <trkpt lat="-16.73114" lon="-151.4478">
        <ele>44.838623</ele>
        <time>2012-05-13T19:36:28Z</time>
      </trkpt>
      <trkpt lat="-16.73099" lon="-151.44802">
        <ele>46.76123</ele>
        <time>2012-05-13T19:36:47Z</time>
      </trkpt>
      <trkpt lat="-16.73088" lon="-151.44817">
        <ele>48.68396</ele>
        <time>2012-05-13T19:37:02Z</time>
      </trkpt>
      <trkpt lat="-16.73087" lon="-151.44827">
        <ele>49.164551</ele>
        <time>2012-05-13T19:37:15Z</time>
      </trkpt>
      <trkpt lat="-16.73089" lon="-151.44827">
        <ele>49.645264</ele>
        <time>2012-05-13T19:37:23Z</time>
      </trkpt>
      <trkpt lat="-16.73093" lon="-151.44824">
        <ele>49.645264</ele>
        <time>2012-05-13T19:37:29Z</time>
      </trkpt>
      <trkpt lat="-16.73108" lon="-151.44809">
        <ele>51.087158</ele>
        <time>2012-05-13T19:37:47Z</time>
      </trkpt>
      <trkpt lat="-16.73122" lon="-151.448">
        <ele>53.490479</ele>
        <time>2012-05-13T19:38:04Z</time>
      </trkpt>
      <trkpt lat="-16.73141" lon="-151.44793">
        <ele>54.451782</ele>
        <time>2012-05-13T19:38:22Z</time>
      </trkpt>
      <trkpt lat="-16.73152" lon="-151.44793">
        <ele>55.413086</ele>
        <time>2012-05-13T19:38:39Z</time>
      </trkpt>
      <trkpt lat="-16.73175" lon="-151.44788">
        <ele>57.816528</ele>
        <time>2012-05-13T19:38:59Z</time>
      </trkpt>
      <trkpt lat="-16.73181" lon="-151.44786">
        <ele>58.77771</ele>
        <time>2012-05-13T19:39:04Z</time>
      </trkpt>
      <trkpt lat="-16.73199" lon="-151.44781">
        <ele>61.18103</ele>
        <time>2012-05-13T19:39:21Z</time>
      </trkpt>
      <trkpt lat="-16.73209" lon="-151.4478">
        <ele>62.142334</ele>
        <time>2012-05-13T19:39:31Z</time>
      </trkpt>
      <trkpt lat="-16.73218" lon="-151.44779">
        <ele>62.142334</ele>
        <time>2012-05-13T19:39:45Z</time>
      </trkpt>
      <trkpt lat="-16.73223" lon="-151.44775">
        <ele>63.103638</ele>
        <time>2012-05-13T19:39:58Z</time>
      </trkpt>
      <trkpt lat="-16.73232" lon="-151.44776">
        <ele>64.065063</ele>
        <time>2012-05-13T19:40:06Z</time>
      </trkpt>
      <trkpt lat="-16.7324" lon="-151.44776">
        <ele>65.026367</ele>
        <time>2012-05-13T19:40:14Z</time>
      </trkpt>
      <trkpt lat="-16.73253" lon="-151.44782">
        <ele>66.468262</ele>
        <time>2012-05-13T19:40:24Z</time>
      </trkpt>
      <trkpt lat="-16.73273" lon="-151.44788">
        <ele>68.390869</ele>
        <time>2012-05-13T19:40:41Z</time>
      </trkpt>
      <trkpt lat="-16.73296" lon="-151.44796">
        <ele>70.313477</ele>
        <time>2012-05-13T19:41:01Z</time>
      </trkpt>
      <trkpt lat="-16.73311" lon="-151.44803">
        <ele>73.678223</ele>
        <time>2012-05-13T19:41:16Z</time>
      </trkpt>
      <trkpt lat="-16.73327" lon="-151.44814">
        <ele>76.562134</ele>
        <time>2012-05-13T19:41:34Z</time>
      </trkpt>
      <trkpt lat="-16.73331" lon="-151.44818">
        <ele>76.562134</ele>
        <time>2012-05-13T19:41:40Z</time>
      </trkpt>
      <trkpt lat="-16.73336" lon="-151.44827">
        <ele>77.042847</ele>
        <time>2012-05-13T19:41:50Z</time>
      </trkpt>
      <trkpt lat="-16.73335" lon="-151.44833">
        <ele>78.484741</ele>
        <time>2012-05-13T19:41:55Z</time>
      </trkpt>
      <trkpt lat="-16.73332" lon="-151.44837">
        <ele>79.446045</ele>
        <time>2012-05-13T19:42:00Z</time>
      </trkpt>
      <trkpt lat="-16.73311" lon="-151.44843">
        <ele>81.849365</ele>
        <time>2012-05-13T19:42:19Z</time>
      </trkpt>
      <trkpt lat="-16.73292" lon="-151.44851">
        <ele>84.733398</ele>
        <time>2012-05-13T19:42:36Z</time>
      </trkpt>
      <trkpt lat="-16.73286" lon="-151.44854">
        <ele>85.213989</ele>
        <time>2012-05-13T19:42:42Z</time>
      </trkpt>
      <trkpt lat="-16.73267" lon="-151.44862">
        <ele>87.617188</ele>
        <time>2012-05-13T19:43:00Z</time>
      </trkpt>
      <trkpt lat="-16.73251" lon="-151.44869">
        <ele>90.02063</ele>
        <time>2012-05-13T19:43:15Z</time>
      </trkpt>
      <trkpt lat="-16.73232" lon="-151.44877">
        <ele>91.462524</ele>
        <time>2012-05-13T19:43:33Z</time>
      </trkpt>
      <trkpt lat="-16.73223" lon="-151.44888">
        <ele>93.865845</ele>
        <time>2012-05-13T19:43:46Z</time>
      </trkpt>
      <trkpt lat="-16.73237" lon="-151.44891">
        <ele>94.827148</ele>
        <time>2012-05-13T19:43:58Z</time>
      </trkpt>
      <trkpt lat="-16.73263" lon="-151.44888">
        <ele>95.788452</ele>
        <time>2012-05-13T19:44:18Z</time>
      </trkpt>
      <trkpt lat="-16.73289" lon="-151.44886">
        <ele>96.749878</ele>
        <time>2012-05-13T19:44:38Z</time>
      </trkpt>
      <trkpt lat="-16.73316" lon="-151.44883">
        <ele>97.711182</ele>
        <time>2012-05-13T19:45:00Z</time>
      </trkpt>
      <trkpt lat="-16.73319" lon="-151.44884">
        <ele>98.191895</ele>
        <time>2012-05-13T19:45:02Z</time>
      </trkpt>
      <trkpt lat="-16.73311" lon="-151.44893">
        <ele>99.153076</ele>
        <time>2012-05-13T19:45:13Z</time>
      </trkpt>
      <trkpt lat="-16.73297" lon="-151.44896">
        <ele>99.633789</ele>
        <time>2012-05-13T19:45:25Z</time>
      </trkpt>
      <trkpt lat="-16.73289" lon="-151.44898">
        <ele>100.595093</ele>
        <time>2012-05-13T19:45:32Z</time>
      </trkpt>
      <trkpt lat="-16.73272" lon="-151.44905">
        <ele>104.921021</ele>
        <time>2012-05-13T19:45:51Z</time>
      </trkpt>
      <trkpt lat="-16.73275" lon="-151.44904">
        <ele>104.44043</ele>
        <time>2012-05-13T19:46:00Z</time>
      </trkpt>
      <trkpt lat="-16.73293" lon="-151.44896">
        <ele>102.5177</ele>
        <time>2012-05-13T19:46:17Z</time>
      </trkpt>
      <trkpt lat="-16.73317" lon="-151.44888">
        <ele>99.153076</ele>
        <time>2012-05-13T19:46:39Z</time>
      </trkpt>
      <trkpt lat="-16.73319" lon="-151.44879">
        <ele>99.633789</ele>
        <time>2012-05-13T19:46:51Z</time>
      </trkpt>
      <trkpt lat="-16.73319" lon="-151.44881">
        <ele>99.153076</ele>
        <time>2012-05-13T19:47:00Z</time>
      </trkpt>
      <trkpt lat="-16.73321" lon="-151.44882">
        <ele>99.153076</ele>
        <time>2012-05-13T19:47:02Z</time>
      </trkpt>
      <trkpt lat="-16.73341" lon="-151.44897">
        <ele>100.595093</ele>
        <time>2012-05-13T19:47:21Z</time>
      </trkpt>
      <trkpt lat="-16.73357" lon="-151.44913">
        <ele>102.998291</ele>
        <time>2012-05-13T19:47:40Z</time>
      </trkpt>
      <trkpt lat="-16.73372" lon="-151.44927">
        <ele>105.882446</ele>
        <time>2012-05-13T19:47:58Z</time>
      </trkpt>
      <trkpt lat="-16.73389" lon="-151.44936">
        <ele>109.246948</ele>
        <time>2012-05-13T19:48:15Z</time>
      </trkpt>
      <trkpt lat="-16.73402" lon="-151.4494">
        <ele>112.130981</ele>
        <time>2012-05-13T19:48:28Z</time>
      </trkpt>
      <trkpt lat="-16.73412" lon="-151.44944">
        <ele>113.572998</ele>
        <time>2012-05-13T19:48:37Z</time>
      </trkpt>
      <trkpt lat="-16.7343" lon="-151.44953">
        <ele>115.495605</ele>
        <time>2012-05-13T19:48:55Z</time>
      </trkpt>
      <trkpt lat="-16.73448" lon="-151.44967">
        <ele>117.898804</ele>
        <time>2012-05-13T19:49:15Z</time>
      </trkpt>
      <trkpt lat="-16.73454" lon="-151.44977">
        <ele>118.860107</ele>
        <time>2012-05-13T19:49:28Z</time>
      </trkpt>
      <trkpt lat="-16.73455" lon="-151.44975">
        <ele>117.898804</ele>
        <time>2012-05-13T19:49:42Z</time>
      </trkpt>
      <trkpt lat="-16.73455" lon="-151.44978">
        <ele>118.860107</ele>
        <time>2012-05-13T19:49:55Z</time>
      </trkpt>
      <trkpt lat="-16.73465" lon="-151.44993">
        <ele>122.705444</ele>
        <time>2012-05-13T19:50:10Z</time>
      </trkpt>
      <trkpt lat="-16.73479" lon="-151.4501">
        <ele>124.628052</ele>
        <time>2012-05-13T19:50:29Z</time>
      </trkpt>
      <trkpt lat="-16.73492" lon="-151.45029">
        <ele>126.069946</ele>
        <time>2012-05-13T19:50:47Z</time>
      </trkpt>
      <trkpt lat="-16.73503" lon="-151.45045">
        <ele>128.473389</ele>
        <time>2012-05-13T19:51:03Z</time>
      </trkpt>
      <trkpt lat="-16.73515" lon="-151.45064">
        <ele>131.3573</ele>
        <time>2012-05-13T19:51:23Z</time>
      </trkpt>
      <trkpt lat="-16.73517" lon="-151.45066">
        <ele>132.318604</ele>
        <time>2012-05-13T19:51:25Z</time>
      </trkpt>
      <trkpt lat="-16.7352" lon="-151.45069">
        <ele>133.279907</ele>
        <time>2012-05-13T19:51:29Z</time>
      </trkpt>
      <trkpt lat="-16.73529" lon="-151.4508">
        <ele>136.16394</ele>
        <time>2012-05-13T19:51:43Z</time>
      </trkpt>
      <trkpt lat="-16.73534" lon="-151.45102">
        <ele>138.086548</ele>
        <time>2012-05-13T19:52:02Z</time>
      </trkpt>
      <trkpt lat="-16.7353" lon="-151.45116">
        <ele>140.970459</ele>
        <time>2012-05-13T19:52:16Z</time>
      </trkpt>
      <trkpt lat="-16.7353" lon="-151.4512">
        <ele>141.45105</ele>
        <time>2012-05-13T19:52:19Z</time>
      </trkpt>
      <trkpt lat="-16.73538" lon="-151.4513">
        <ele>143.85437</ele>
        <time>2012-05-13T19:52:30Z</time>
      </trkpt>
      <trkpt lat="-16.7354" lon="-151.45131">
        <ele>144.335205</ele>
        <time>2012-05-13T19:52:32Z</time>
      </trkpt>
      <trkpt lat="-16.73556" lon="-151.45144">
        <ele>146.738403</ele>
        <time>2012-05-13T19:52:50Z</time>
      </trkpt>
      <trkpt lat="-16.73566" lon="-151.45163">
        <ele>149.141602</ele>
        <time>2012-05-13T19:53:08Z</time>
      </trkpt>
      <trkpt lat="-16.73569" lon="-151.45183">
        <ele>150.583618</ele>
        <time>2012-05-13T19:53:25Z</time>
      </trkpt>
      <trkpt lat="-16.73571" lon="-151.45202">
        <ele>152.025757</ele>
        <time>2012-05-13T19:53:40Z</time>
      </trkpt>
      <trkpt lat="-16.73571" lon="-151.45206">
        <ele>152.506348</ele>
        <time>2012-05-13T19:53:44Z</time>
      </trkpt>
      <trkpt lat="-16.73578" lon="-151.45223">
        <ele>153.948364</ele>
        <time>2012-05-13T19:54:00Z</time>
      </trkpt>
      <trkpt lat="-16.7359" lon="-151.45239">
        <ele>155.870972</ele>
        <time>2012-05-13T19:54:17Z</time>
      </trkpt>
      <trkpt lat="-16.736" lon="-151.45241">
        <ele>156.351562</ele>
        <time>2012-05-13T19:54:30Z</time>
      </trkpt>
      <trkpt lat="-16.73601" lon="-151.45233">
        <ele>154.909546</ele>
        <time>2012-05-13T19:54:39Z</time>
      </trkpt>
      <trkpt lat="-16.73606" lon="-151.45214">
        <ele>154.428955</ele>
        <time>2012-05-13T19:54:54Z</time>
      </trkpt>
      <trkpt lat="-16.73612" lon="-151.45188">
        <ele>152.025757</ele>
        <time>2012-05-13T19:55:16Z</time>
      </trkpt>
      <trkpt lat="-16.73635" lon="-151.45177">
        <ele>151.544922</ele>
        <time>2012-05-13T19:55:36Z</time>
      </trkpt>
      <trkpt lat="-16.73641" lon="-151.45176">
        <ele>152.025757</ele>
        <time>2012-05-13T19:55:41Z</time>
      </trkpt>
      <trkpt lat="-16.73659" lon="-151.45173">
        <ele>153.467651</ele>
        <time>2012-05-13T19:55:56Z</time>
      </trkpt>
      <trkpt lat="-16.73684" lon="-151.45181">
        <ele>154.909546</ele>
        <time>2012-05-13T19:56:16Z</time>
      </trkpt>
      <trkpt lat="-16.73692" lon="-151.45185">
        <ele>155.870972</ele>
        <time>2012-05-13T19:56:23Z</time>
      </trkpt>
      <trkpt lat="-16.7371" lon="-151.45196">
        <ele>157.793579</ele>
        <time>2012-05-13T19:56:39Z</time>
      </trkpt>
      <trkpt lat="-16.73728" lon="-151.45204">
        <ele>158.27417</ele>
        <time>2012-05-13T19:56:55Z</time>
      </trkpt>
      <trkpt lat="-16.73741" lon="-151.4521">
        <ele>161.638916</ele>
        <time>2012-05-13T19:57:08Z</time>
      </trkpt>
      <trkpt lat="-16.73751" lon="-151.45215">
        <ele>165.003418</ele>
        <time>2012-05-13T19:57:19Z</time>
      </trkpt>
      <trkpt lat="-16.73759" lon="-151.45217">
        <ele>167.406738</ele>
        <time>2012-05-13T19:57:27Z</time>
      </trkpt>
      <trkpt lat="-16.73771" lon="-151.45226">
        <ele>170.290649</ele>
        <time>2012-05-13T19:57:43Z</time>
      </trkpt>
      <trkpt lat="-16.73779" lon="-151.45233">
        <ele>172.69397</ele>
        <time>2012-05-13T19:57:55Z</time>
      </trkpt>
      <trkpt lat="-16.73778" lon="-151.45235">
        <ele>173.174683</ele>
        <time>2012-05-13T19:57:57Z</time>
      </trkpt>
      <trkpt lat="-16.73768" lon="-151.45235">
        <ele>174.616577</ele>
        <time>2012-05-13T19:58:10Z</time>
      </trkpt>
      <trkpt lat="-16.7375" lon="-151.45236">
        <ele>176.058594</ele>
        <time>2012-05-13T19:58:24Z</time>
      </trkpt>
      <trkpt lat="-16.73731" lon="-151.45239">
        <ele>177.02002</ele>
        <time>2012-05-13T19:58:41Z</time>
      </trkpt>
      <trkpt lat="-16.7372" lon="-151.45246">
        <ele>178.461914</ele>
        <time>2012-05-13T19:58:52Z</time>
      </trkpt>
      <trkpt lat="-16.73716" lon="-151.45248">
        <ele>178.942627</ele>
        <time>2012-05-13T19:58:56Z</time>
      </trkpt>
      <trkpt lat="-16.737" lon="-151.45253">
        <ele>181.345825</ele>
        <time>2012-05-13T19:59:11Z</time>
      </trkpt>
      <trkpt lat="-16.73686" lon="-151.45252">
        <ele>183.749023</ele>
        <time>2012-05-13T19:59:23Z</time>
      </trkpt>
      <trkpt lat="-16.73673" lon="-151.45254">
        <ele>186.633179</ele>
        <time>2012-05-13T19:59:37Z</time>
      </trkpt>
      <trkpt lat="-16.73664" lon="-151.45268">
        <ele>188.075073</ele>
        <time>2012-05-13T19:59:54Z</time>
      </trkpt>
      <trkpt lat="-16.73663" lon="-151.45273">
        <ele>188.075073</ele>
        <time>2012-05-13T19:59:57Z</time>
      </trkpt>
      <trkpt lat="-16.73661" lon="-151.45284">
        <ele>189.036377</ele>
        <time>2012-05-13T20:00:06Z</time>
      </trkpt>
      <trkpt lat="-16.73659" lon="-151.45299">
        <ele>189.516968</ele>
        <time>2012-05-13T20:00:16Z</time>
      </trkpt>
      <trkpt lat="-16.73656" lon="-151.45317">
        <ele>191.439575</ele>
        <time>2012-05-13T20:00:28Z</time>
      </trkpt>
      <trkpt lat="-16.73655" lon="-151.45326">
        <ele>191.920288</ele>
        <time>2012-05-13T20:00:35Z</time>
      </trkpt>
      <trkpt lat="-16.73638" lon="-151.45335">
        <ele>192.881714</ele>
        <time>2012-05-13T20:00:50Z</time>
      </trkpt>
      <trkpt lat="-16.73633" lon="-151.45335">
        <ele>192.881714</ele>
        <time>2012-05-13T20:00:53Z</time>
      </trkpt>
      <trkpt lat="-16.7362" lon="-151.45339">
        <ele>193.362305</ele>
        <time>2012-05-13T20:01:04Z</time>
      </trkpt>
      <trkpt lat="-16.73614" lon="-151.45354">
        <ele>193.362305</ele>
        <time>2012-05-13T20:01:16Z</time>
      </trkpt>
      <trkpt lat="-16.7361" lon="-151.45359">
        <ele>194.32373</ele>
        <time>2012-05-13T20:01:22Z</time>
      </trkpt>
      <trkpt lat="-16.73598" lon="-151.45374">
        <ele>196.246338</ele>
        <time>2012-05-13T20:01:35Z</time>
      </trkpt>
      <trkpt lat="-16.73584" lon="-151.45378">
        <ele>198.649536</ele>
        <time>2012-05-13T20:01:48Z</time>
      </trkpt>
      <trkpt lat="-16.73565" lon="-151.45376">
        <ele>200.091675</ele>
        <time>2012-05-13T20:02:01Z</time>
      </trkpt>
      <trkpt lat="-16.73554" lon="-151.45372">
        <ele>202.014282</ele>
        <time>2012-05-13T20:02:18Z</time>
      </trkpt>
      <trkpt lat="-16.73542" lon="-151.45366">
        <ele>203.93689</ele>
        <time>2012-05-13T20:02:32Z</time>
      </trkpt>
      <trkpt lat="-16.73535" lon="-151.45367">
        <ele>206.820679</ele>
        <time>2012-05-13T20:02:43Z</time>
      </trkpt>
      <trkpt lat="-16.73542" lon="-151.45375">
        <ele>208.743408</ele>
        <time>2012-05-13T20:02:56Z</time>
      </trkpt>
      <trkpt lat="-16.73559" lon="-151.45387">
        <ele>211.146729</ele>
        <time>2012-05-13T20:03:12Z</time>
      </trkpt>
      <trkpt lat="-16.73569" lon="-151.45393">
        <ele>214.03064</ele>
        <time>2012-05-13T20:03:24Z</time>
      </trkpt>
      <trkpt lat="-16.73581" lon="-151.45398">
        <ele>216.43396</ele>
        <time>2012-05-13T20:03:37Z</time>
      </trkpt>
      <trkpt lat="-16.73584" lon="-151.454">
        <ele>216.914673</ele>
        <time>2012-05-13T20:03:40Z</time>
      </trkpt>
      <trkpt lat="-16.73585" lon="-151.45401">
        <ele>218.356567</ele>
        <time>2012-05-13T20:03:42Z</time>
      </trkpt>
      <trkpt lat="-16.73583" lon="-151.45406">
        <ele>219.317993</ele>
        <time>2012-05-13T20:03:48Z</time>
      </trkpt>
      <trkpt lat="-16.73574" lon="-151.45411">
        <ele>220.279175</ele>
        <time>2012-05-13T20:03:58Z</time>
      </trkpt>
      <trkpt lat="-16.73565" lon="-151.45414">
        <ele>221.240601</ele>
        <time>2012-05-13T20:04:06Z</time>
      </trkpt>
      <trkpt lat="-16.73554" lon="-151.45415">
        <ele>222.682495</ele>
        <time>2012-05-13T20:04:17Z</time>
      </trkpt>
      <trkpt lat="-16.7354" lon="-151.45413">
        <ele>222.682495</ele>
        <time>2012-05-13T20:04:28Z</time>
      </trkpt>
      <trkpt lat="-16.73527" lon="-151.4541">
        <ele>224.605225</ele>
        <time>2012-05-13T20:04:41Z</time>
      </trkpt>
      <trkpt lat="-16.73517" lon="-151.45404">
        <ele>227.008545</ele>
        <time>2012-05-13T20:04:56Z</time>
      </trkpt>
      <trkpt lat="-16.73504" lon="-151.45395">
        <ele>227.969727</ele>
        <time>2012-05-13T20:05:10Z</time>
      </trkpt>
      <trkpt lat="-16.73491" lon="-151.45383">
        <ele>230.85376</ele>
        <time>2012-05-13T20:05:27Z</time>
      </trkpt>
      <trkpt lat="-16.73486" lon="-151.45368">
        <ele>234.218384</ele>
        <time>2012-05-13T20:05:41Z</time>
      </trkpt>
      <trkpt lat="-16.73477" lon="-151.45356">
        <ele>234.699097</ele>
        <time>2012-05-13T20:05:57Z</time>
      </trkpt>
      <trkpt lat="-16.73467" lon="-151.45348">
        <ele>236.621704</ele>
        <time>2012-05-13T20:06:13Z</time>
      </trkpt>
      <trkpt lat="-16.73459" lon="-151.45345">
        <ele>238.544312</ele>
        <time>2012-05-13T20:06:22Z</time>
      </trkpt>
      <trkpt lat="-16.73446" lon="-151.45342">
        <ele>241.428223</ele>
        <time>2012-05-13T20:06:35Z</time>
      </trkpt>
      <trkpt lat="-16.7344" lon="-151.4533">
        <ele>243.35083</ele>
        <time>2012-05-13T20:06:48Z</time>
      </trkpt>
      <trkpt lat="-16.73438" lon="-151.45311">
        <ele>246.234863</ele>
        <time>2012-05-13T20:07:05Z</time>
      </trkpt>
      <trkpt lat="-16.73434" lon="-151.453">
        <ele>249.599487</ele>
        <time>2012-05-13T20:07:16Z</time>
      </trkpt>
      <trkpt lat="-16.73427" lon="-151.4529">
        <ele>250.560791</ele>
        <time>2012-05-13T20:07:30Z</time>
      </trkpt>
      <trkpt lat="-16.73426" lon="-151.45289">
        <ele>251.041382</ele>
        <time>2012-05-13T20:07:32Z</time>
      </trkpt>
      <trkpt lat="-16.73421" lon="-151.45289">
        <ele>252.483398</ele>
        <time>2012-05-13T20:07:44Z</time>
      </trkpt>
      <trkpt lat="-16.73408" lon="-151.45299">
        <ele>253.444702</ele>
        <time>2012-05-13T20:08:00Z</time>
      </trkpt>
      <trkpt lat="-16.73398" lon="-151.45308">
        <ele>256.809326</ele>
        <time>2012-05-13T20:08:15Z</time>
      </trkpt>
      <trkpt lat="-16.73398" lon="-151.4531">
        <ele>255.848022</ele>
        <time>2012-05-13T20:08:27Z</time>
      </trkpt>
      <trkpt lat="-16.73388" lon="-151.45318">
        <ele>257.770752</ele>
        <time>2012-05-13T20:08:45Z</time>
      </trkpt>
      <trkpt lat="-16.73373" lon="-151.45319">
        <ele>260.654541</ele>
        <time>2012-05-13T20:08:58Z</time>
      </trkpt>
      <trkpt lat="-16.73363" lon="-151.45311">
        <ele>264.019287</ele>
        <time>2012-05-13T20:09:12Z</time>
      </trkpt>
      <trkpt lat="-16.73357" lon="-151.45296">
        <ele>266.422485</ele>
        <time>2012-05-13T20:09:27Z</time>
      </trkpt>
      <trkpt lat="-16.73356" lon="-151.45292">
        <ele>267.383911</ele>
        <time>2012-05-13T20:09:31Z</time>
      </trkpt>
      <trkpt lat="-16.73351" lon="-151.45277">
        <ele>270.748413</ele>
        <time>2012-05-13T20:09:46Z</time>
      </trkpt>
      <trkpt lat="-16.7335" lon="-151.45272">
        <ele>272.19043</ele>
        <time>2012-05-13T20:09:51Z</time>
      </trkpt>
      <trkpt lat="-16.73346" lon="-151.45263">
        <ele>274.59375</ele>
        <time>2012-05-13T20:10:02Z</time>
      </trkpt>
      <trkpt lat="-16.73344" lon="-151.45255">
        <ele>276.035645</ele>
        <time>2012-05-13T20:10:11Z</time>
      </trkpt>
      <trkpt lat="-16.7334" lon="-151.45243">
        <ele>279.400269</ele>
        <time>2012-05-13T20:10:24Z</time>
      </trkpt>
      <trkpt lat="-16.73335" lon="-151.45226">
        <ele>281.322998</ele>
        <time>2012-05-13T20:10:41Z</time>
      </trkpt>
      <trkpt lat="-16.7333" lon="-151.45212">
        <ele>284.687622</ele>
        <time>2012-05-13T20:10:56Z</time>
      </trkpt>
      <trkpt lat="-16.7333" lon="-151.45204">
        <ele>286.129517</ele>
        <time>2012-05-13T20:11:14Z</time>
      </trkpt>
      <trkpt lat="-16.7333" lon="-151.45203">
        <ele>286.129517</ele>
        <time>2012-05-13T20:11:26Z</time>
      </trkpt>
      <trkpt lat="-16.73326" lon="-151.45206">
        <ele>285.168213</ele>
        <time>2012-05-13T20:11:38Z</time>
      </trkpt>
      <trkpt lat="-16.73325" lon="-151.45206">
        <ele>285.168213</ele>
        <time>2012-05-13T20:11:51Z</time>
      </trkpt>
      <trkpt lat="-16.73324" lon="-151.45206">
        <ele>286.129517</ele>
        <time>2012-05-13T20:12:18Z</time>
      </trkpt>
      <trkpt lat="-16.73325" lon="-151.45206">
        <ele>285.648804</ele>
        <time>2012-05-13T20:12:25Z</time>
      </trkpt>
      <trkpt lat="-16.73325" lon="-151.45206">
        <ele>284.687622</ele>
        <time>2012-05-13T20:12:52Z</time>
      </trkpt>
      <trkpt lat="-16.73324" lon="-151.45207">
        <ele>286.129517</ele>
        <time>2012-05-13T20:13:01Z</time>
      </trkpt>
      <trkpt lat="-16.73313" lon="-151.4522">
        <ele>289.01355</ele>
        <time>2012-05-13T20:13:19Z</time>
      </trkpt>
      <trkpt lat="-16.73308" lon="-151.45225">
        <ele>292.378174</ele>
        <time>2012-05-13T20:13:30Z</time>
      </trkpt>
      <trkpt lat="-16.73301" lon="-151.45235">
        <ele>294.300781</ele>
        <time>2012-05-13T20:13:44Z</time>
      </trkpt>
      <trkpt lat="-16.73301" lon="-151.45242">
        <ele>295.261963</ele>
        <time>2012-05-13T20:14:06Z</time>
      </trkpt>
      <trkpt lat="-16.73301" lon="-151.45242">
        <ele>294.300781</ele>
        <time>2012-05-13T20:14:17Z</time>
      </trkpt>
      <trkpt lat="-16.73308" lon="-151.4526">
        <ele>292.858765</ele>
        <time>2012-05-13T20:14:36Z</time>
      </trkpt>
      <trkpt lat="-16.73307" lon="-151.45267">
        <ele>289.494141</ele>
        <time>2012-05-13T20:14:46Z</time>
      </trkpt>
      <trkpt lat="-16.73307" lon="-151.45268">
        <ele>289.494141</ele>
        <time>2012-05-13T20:14:47Z</time>
      </trkpt>
      <trkpt lat="-16.73304" lon="-151.45277">
        <ele>287.571411</ele>
        <time>2012-05-13T20:14:59Z</time>
      </trkpt>
      <trkpt lat="-16.73298" lon="-151.4529">
        <ele>283.726196</ele>
        <time>2012-05-13T20:15:14Z</time>
      </trkpt>
      <trkpt lat="-16.73296" lon="-151.45295">
        <ele>284.206909</ele>
        <time>2012-05-13T20:15:19Z</time>
      </trkpt>
      <trkpt lat="-16.73293" lon="-151.45307">
        <ele>286.610229</ele>
        <time>2012-05-13T20:15:30Z</time>
      </trkpt>
      <trkpt lat="-16.73289" lon="-151.45315">
        <ele>287.09082</ele>
        <time>2012-05-13T20:15:45Z</time>
      </trkpt>
      <trkpt lat="-16.73289" lon="-151.45317">
        <ele>287.571411</ele>
        <time>2012-05-13T20:17:36Z</time>
      </trkpt>
      <trkpt lat="-16.73292" lon="-151.45323">
        <ele>289.974854</ele>
        <time>2012-05-13T20:17:48Z</time>
      </trkpt>
      <trkpt lat="-16.73293" lon="-151.45334">
        <ele>291.897461</ele>
        <time>2012-05-13T20:17:59Z</time>
      </trkpt>
      <trkpt lat="-16.73298" lon="-151.45352">
        <ele>293.820068</ele>
        <time>2012-05-13T20:18:18Z</time>
      </trkpt>
      <trkpt lat="-16.73303" lon="-151.4536">
        <ele>290.455566</ele>
        <time>2012-05-13T20:18:33Z</time>
      </trkpt>
      <trkpt lat="-16.73309" lon="-151.45368">
        <ele>289.01355</ele>
        <time>2012-05-13T20:18:46Z</time>
      </trkpt>
      <trkpt lat="-16.7332" lon="-151.45386">
        <ele>290.936157</ele>
        <time>2012-05-13T20:19:05Z</time>
      </trkpt>
      <trkpt lat="-16.73322" lon="-151.45396">
        <ele>294.300781</ele>
        <time>2012-05-13T20:19:19Z</time>
      </trkpt>
      <trkpt lat="-16.73328" lon="-151.45407">
        <ele>296.704102</ele>
        <time>2012-05-13T20:19:37Z</time>
      </trkpt>
      <trkpt lat="-16.73333" lon="-151.45408">
        <ele>298.626709</ele>
        <time>2012-05-13T20:19:53Z</time>
      </trkpt>
      <trkpt lat="-16.73347" lon="-151.45407">
        <ele>298.146118</ele>
        <time>2012-05-13T20:20:09Z</time>
      </trkpt>
      <trkpt lat="-16.7336" lon="-151.45416">
        <ele>298.146118</ele>
        <time>2012-05-13T20:20:26Z</time>
      </trkpt>
      <trkpt lat="-16.7337" lon="-151.45423">
        <ele>297.184692</ele>
        <time>2012-05-13T20:20:41Z</time>
      </trkpt>
      <trkpt lat="-16.73382" lon="-151.45428">
        <ele>295.261963</ele>
        <time>2012-05-13T20:20:56Z</time>
      </trkpt>
      <trkpt lat="-16.7339" lon="-151.45433">
        <ele>296.704102</ele>
        <time>2012-05-13T20:21:10Z</time>
      </trkpt>
      <trkpt lat="-16.73387" lon="-151.4543">
        <ele>296.223511</ele>
        <time>2012-05-13T20:21:38Z</time>
      </trkpt>
      <trkpt lat="-16.73375" lon="-151.45426">
        <ele>297.184692</ele>
        <time>2012-05-13T20:21:54Z</time>
      </trkpt>
      <trkpt lat="-16.7337" lon="-151.45424">
        <ele>297.184692</ele>
        <time>2012-05-13T20:22:00Z</time>
      </trkpt>
      <trkpt lat="-16.73357" lon="-151.45413">
        <ele>299.1073</ele>
        <time>2012-05-13T20:22:17Z</time>
      </trkpt>
      <trkpt lat="-16.73347" lon="-151.4541">
        <ele>299.1073</ele>
        <time>2012-05-13T20:22:29Z</time>
      </trkpt>
      <trkpt lat="-16.73332" lon="-151.45409">
        <ele>298.626709</ele>
        <time>2012-05-13T20:22:47Z</time>
      </trkpt>
      <trkpt lat="-16.73327" lon="-151.45406">
        <ele>297.665405</ele>
        <time>2012-05-13T20:23:05Z</time>
      </trkpt>
      <trkpt lat="-16.73324" lon="-151.454">
        <ele>296.704102</ele>
        <time>2012-05-13T20:23:22Z</time>
      </trkpt>
      <trkpt lat="-16.73323" lon="-151.45396">
        <ele>295.261963</ele>
        <time>2012-05-13T20:23:30Z</time>
      </trkpt>
      <trkpt lat="-16.73321" lon="-151.45386">
        <ele>291.897461</ele>
        <time>2012-05-13T20:23:45Z</time>
      </trkpt>
      <trkpt lat="-16.7332" lon="-151.45384">
        <ele>291.897461</ele>
        <time>2012-05-13T20:23:48Z</time>
      </trkpt>
      <trkpt lat="-16.7331" lon="-151.45369">
        <ele>290.936157</ele>
        <time>2012-05-13T20:24:05Z</time>
      </trkpt>
      <trkpt lat="-16.73301" lon="-151.4536">
        <ele>293.820068</ele>
        <time>2012-05-13T20:24:22Z</time>
      </trkpt>
      <trkpt lat="-16.73299" lon="-151.45354">
        <ele>296.223511</ele>
        <time>2012-05-13T20:24:30Z</time>
      </trkpt>
      <trkpt lat="-16.73294" lon="-151.4534">
        <ele>295.742676</ele>
        <time>2012-05-13T20:24:46Z</time>
      </trkpt>
      <trkpt lat="-16.73294" lon="-151.45339">
        <ele>295.261963</ele>
        <time>2012-05-13T20:24:47Z</time>
      </trkpt>
      <trkpt lat="-16.73288" lon="-151.45327">
        <ele>292.378174</ele>
        <time>2012-05-13T20:25:04Z</time>
      </trkpt>
      <trkpt lat="-16.73288" lon="-151.45316">
        <ele>290.455566</ele>
        <time>2012-05-13T20:25:20Z</time>
      </trkpt>
      <trkpt lat="-16.73289" lon="-151.45313">
        <ele>289.974854</ele>
        <time>2012-05-13T20:25:35Z</time>
      </trkpt>
      <trkpt lat="-16.73288" lon="-151.45314">
        <ele>289.01355</ele>
        <time>2012-05-13T20:25:52Z</time>
      </trkpt>
      <trkpt lat="-16.73288" lon="-151.45312">
        <ele>289.01355</ele>
        <time>2012-05-13T20:28:11Z</time>
      </trkpt>
      <trkpt lat="-16.7329" lon="-151.4531">
        <ele>289.974854</ele>
        <time>2012-05-13T20:28:43Z</time>
      </trkpt>
      <trkpt lat="-16.73288" lon="-151.45312">
        <ele>289.974854</ele>
        <time>2012-05-13T20:29:37Z</time>
      </trkpt>
      <trkpt lat="-16.73288" lon="-151.45312">
        <ele>289.01355</ele>
        <time>2012-05-13T20:30:06Z</time>
      </trkpt>
      <trkpt lat="-16.73289" lon="-151.45312">
        <ele>289.01355</ele>
        <time>2012-05-13T20:30:50Z</time>
      </trkpt>
      <trkpt lat="-16.73287" lon="-151.45313">
        <ele>289.974854</ele>
        <time>2012-05-13T20:31:15Z</time>
      </trkpt>
      <trkpt lat="-16.73286" lon="-151.45311">
        <ele>289.494141</ele>
        <time>2012-05-13T20:31:39Z</time>
      </trkpt>
      <trkpt lat="-16.73289" lon="-151.45311">
        <ele>288.532959</ele>
        <time>2012-05-13T20:32:15Z</time>
      </trkpt>
      <trkpt lat="-16.7329" lon="-151.45311">
        <ele>289.974854</ele>
        <time>2012-05-13T20:32:47Z</time>
      </trkpt>
      <trkpt lat="-16.7329" lon="-151.45312">
        <ele>289.974854</ele>
        <time>2012-05-13T20:33:37Z</time>
      </trkpt>
      <trkpt lat="-16.73288" lon="-151.45311">
        <ele>290.936157</ele>
        <time>2012-05-13T20:34:02Z</time>
      </trkpt>
      <trkpt lat="-16.73288" lon="-151.45311">
        <ele>290.455566</ele>
        <time>2012-05-13T20:34:30Z</time>
      </trkpt>
      <trkpt lat="-16.73289" lon="-151.45311">
        <ele>290.455566</ele>
        <time>2012-05-13T20:34:41Z</time>
      </trkpt>
      <trkpt lat="-16.7329" lon="-151.45312">
        <ele>290.455566</ele>
        <time>2012-05-13T20:35:21Z</time>
      </trkpt>
      <trkpt lat="-16.73289" lon="-151.45312">
        <ele>289.01355</ele>
        <time>2012-05-13T20:35:57Z</time>
      </trkpt>
      <trkpt lat="-16.73289" lon="-151.45312">
        <ele>290.936157</ele>
        <time>2012-05-13T20:36:02Z</time>
      </trkpt>
      <trkpt lat="-16.73289" lon="-151.45313">
        <ele>291.416748</ele>
        <time>2012-05-13T20:36:24Z</time>
      </trkpt>
      <trkpt lat="-16.73293" lon="-151.4531">
        <ele>290.455566</ele>
        <time>2012-05-13T20:36:43Z</time>
      </trkpt>
      <trkpt lat="-16.73296" lon="-151.45303">
        <ele>290.455566</ele>
        <time>2012-05-13T20:36:52Z</time>
      </trkpt>
      <trkpt lat="-16.73297" lon="-151.45301">
        <ele>288.532959</ele>
        <time>2012-05-13T20:36:55Z</time>
      </trkpt>
      <trkpt lat="-16.73298" lon="-151.45299">
        <ele>289.494141</ele>
        <time>2012-05-13T20:36:57Z</time>
      </trkpt>
      <trkpt lat="-16.73298" lon="-151.45297">
        <ele>289.01355</ele>
        <time>2012-05-13T20:36:59Z</time>
      </trkpt>
      <trkpt lat="-16.73303" lon="-151.45286">
        <ele>289.974854</ele>
        <time>2012-05-13T20:37:11Z</time>
      </trkpt>
      <trkpt lat="-16.73304" lon="-151.45281">
        <ele>290.936157</ele>
        <time>2012-05-13T20:37:16Z</time>
      </trkpt>
      <trkpt lat="-16.73306" lon="-151.45276">
        <ele>292.858765</ele>
        <time>2012-05-13T20:37:23Z</time>
      </trkpt>
      <trkpt lat="-16.73307" lon="-151.45262">
        <ele>295.742676</ele>
        <time>2012-05-13T20:37:39Z</time>
      </trkpt>
      <trkpt lat="-16.73306" lon="-151.45249">
        <ele>299.588013</ele>
        <time>2012-05-13T20:37:55Z</time>
      </trkpt>
      <trkpt lat="-16.73303" lon="-151.45236">
        <ele>298.146118</ele>
        <time>2012-05-13T20:38:09Z</time>
      </trkpt>
      <trkpt lat="-16.73301" lon="-151.4523">
        <ele>299.588013</ele>
        <time>2012-05-13T20:38:25Z</time>
      </trkpt>
      <trkpt lat="-16.73302" lon="-151.4523">
        <ele>296.223511</ele>
        <time>2012-05-13T20:38:43Z</time>
      </trkpt>
      <trkpt lat="-16.73302" lon="-151.4523">
        <ele>296.223511</ele>
        <time>2012-05-13T20:38:44Z</time>
      </trkpt>
      <trkpt lat="-16.73302" lon="-151.4523">
        <ele>298.146118</ele>
        <time>2012-05-13T20:38:48Z</time>
      </trkpt>
      <trkpt lat="-16.73302" lon="-151.4523">
        <ele>297.184692</ele>
        <time>2012-05-13T20:38:50Z</time>
      </trkpt>
      <trkpt lat="-16.73302" lon="-151.45229">
        <ele>299.588013</ele>
        <time>2012-05-13T20:39:04Z</time>
      </trkpt>
      <trkpt lat="-16.73302" lon="-151.45229">
        <ele>298.626709</ele>
        <time>2012-05-13T20:39:12Z</time>
      </trkpt>
      <trkpt lat="-16.73303" lon="-151.45229">
        <ele>298.626709</ele>
        <time>2012-05-13T20:39:40Z</time>
      </trkpt>
      <trkpt lat="-16.73302" lon="-151.45229">
        <ele>297.184692</ele>
        <time>2012-05-13T20:39:42Z</time>
      </trkpt>
      <trkpt lat="-16.73303" lon="-151.45228">
        <ele>296.704102</ele>
        <time>2012-05-13T20:40:02Z</time>
      </trkpt>
      <trkpt lat="-16.73303" lon="-151.45228">
        <ele>298.146118</ele>
        <time>2012-05-13T20:40:05Z</time>
      </trkpt>
      <trkpt lat="-16.73305" lon="-151.45228">
        <ele>294.781372</ele>
        <time>2012-05-13T20:40:45Z</time>
      </trkpt>
      <trkpt lat="-16.73305" lon="-151.45228">
        <ele>295.261963</ele>
        <time>2012-05-13T20:40:46Z</time>
      </trkpt>
      <trkpt lat="-16.73305" lon="-151.45228">
        <ele>294.781372</ele>
        <time>2012-05-13T20:41:08Z</time>
      </trkpt>
      <trkpt lat="-16.73309" lon="-151.45226">
        <ele>296.223511</ele>
        <time>2012-05-13T20:41:14Z</time>
      </trkpt>
      <trkpt lat="-16.73317" lon="-151.4522">
        <ele>293.339355</ele>
        <time>2012-05-13T20:41:24Z</time>
      </trkpt>
      <trkpt lat="-16.73322" lon="-151.45213">
        <ele>291.897461</ele>
        <time>2012-05-13T20:41:33Z</time>
      </trkpt>
      <trkpt lat="-16.73326" lon="-151.45211">
        <ele>290.936157</ele>
        <time>2012-05-13T20:41:37Z</time>
      </trkpt>
      <trkpt lat="-16.7333" lon="-151.4521">
        <ele>289.974854</ele>
        <time>2012-05-13T20:41:41Z</time>
      </trkpt>
      <trkpt lat="-16.73334" lon="-151.45213">
        <ele>288.052246</ele>
        <time>2012-05-13T20:41:45Z</time>
      </trkpt>
      <trkpt lat="-16.7334" lon="-151.45227">
        <ele>286.129517</ele>
        <time>2012-05-13T20:42:00Z</time>
      </trkpt>
      <trkpt lat="-16.73347" lon="-151.45241">
        <ele>284.206909</ele>
        <time>2012-05-13T20:42:17Z</time>
      </trkpt>
      <trkpt lat="-16.73352" lon="-151.45258">
        <ele>280.842407</ele>
        <time>2012-05-13T20:42:34Z</time>
      </trkpt>
      <trkpt lat="-16.73357" lon="-151.45274">
        <ele>277.477661</ele>
        <time>2012-05-13T20:42:50Z</time>
      </trkpt>
      <trkpt lat="-16.73358" lon="-151.45275">
        <ele>277.477661</ele>
        <time>2012-05-13T20:42:51Z</time>
      </trkpt>
      <trkpt lat="-16.7336" lon="-151.45287">
        <ele>274.113037</ele>
        <time>2012-05-13T20:43:03Z</time>
      </trkpt>
      <trkpt lat="-16.73364" lon="-151.45304">
        <ele>271.709717</ele>
        <time>2012-05-13T20:43:20Z</time>
      </trkpt>
      <trkpt lat="-16.73365" lon="-151.45305">
        <ele>270.2677</ele>
        <time>2012-05-13T20:43:22Z</time>
      </trkpt>
      <trkpt lat="-16.73374" lon="-151.45315">
        <ele>269.787109</ele>
        <time>2012-05-13T20:43:34Z</time>
      </trkpt>
      <trkpt lat="-16.73377" lon="-151.45316">
        <ele>268.825806</ele>
        <time>2012-05-13T20:43:36Z</time>
      </trkpt>
      <trkpt lat="-16.73383" lon="-151.4532">
        <ele>266.903198</ele>
        <time>2012-05-13T20:43:44Z</time>
      </trkpt>
      <trkpt lat="-16.73385" lon="-151.45322">
        <ele>266.422485</ele>
        <time>2012-05-13T20:43:48Z</time>
      </trkpt>
      <trkpt lat="-16.7339" lon="-151.45319">
        <ele>264.980591</ele>
        <time>2012-05-13T20:43:54Z</time>
      </trkpt>
      <trkpt lat="-16.73403" lon="-151.45307">
        <ele>261.615967</ele>
        <time>2012-05-13T20:44:12Z</time>
      </trkpt>
      <trkpt lat="-16.73411" lon="-151.45298">
        <ele>260.17395</ele>
        <time>2012-05-13T20:44:29Z</time>
      </trkpt>
      <trkpt lat="-16.73426" lon="-151.45289">
        <ele>257.770752</ele>
        <time>2012-05-13T20:44:45Z</time>
      </trkpt>
      <trkpt lat="-16.73431" lon="-151.4529">
        <ele>256.328735</ele>
        <time>2012-05-13T20:44:50Z</time>
      </trkpt>
      <trkpt lat="-16.73431" lon="-151.4529">
        <ele>255.848022</ele>
        <time>2012-05-13T20:44:51Z</time>
      </trkpt>
      <trkpt lat="-16.73438" lon="-151.45305">
        <ele>254.406006</ele>
        <time>2012-05-13T20:45:09Z</time>
      </trkpt>
      <trkpt lat="-16.7344" lon="-151.45314">
        <ele>251.522095</ele>
        <time>2012-05-13T20:45:21Z</time>
      </trkpt>
      <trkpt lat="-16.7344" lon="-151.4532">
        <ele>250.0802</ele>
        <time>2012-05-13T20:45:28Z</time>
      </trkpt>
      <trkpt lat="-16.73447" lon="-151.45333">
        <ele>247.196045</ele>
        <time>2012-05-13T20:45:44Z</time>
      </trkpt>
      <trkpt lat="-16.73458" lon="-151.45344">
        <ele>246.234863</ele>
        <time>2012-05-13T20:45:58Z</time>
      </trkpt>
      <trkpt lat="-16.73463" lon="-151.45345">
        <ele>245.75415</ele>
        <time>2012-05-13T20:46:03Z</time>
      </trkpt>
      <trkpt lat="-16.73475" lon="-151.45352">
        <ele>244.792847</ele>
        <time>2012-05-13T20:46:19Z</time>
      </trkpt>
      <trkpt lat="-16.7349" lon="-151.4536">
        <ele>242.389648</ele>
        <time>2012-05-13T20:46:36Z</time>
      </trkpt>
      <trkpt lat="-16.73496" lon="-151.45369">
        <ele>239.986206</ele>
        <time>2012-05-13T20:46:50Z</time>
      </trkpt>
      <trkpt lat="-16.735" lon="-151.45378">
        <ele>237.102295</ele>
        <time>2012-05-13T20:47:02Z</time>
      </trkpt>
      <trkpt lat="-16.73507" lon="-151.45388">
        <ele>236.621704</ele>
        <time>2012-05-13T20:47:17Z</time>
      </trkpt>
      <trkpt lat="-16.73517" lon="-151.45397">
        <ele>235.179688</ele>
        <time>2012-05-13T20:47:32Z</time>
      </trkpt>
      <trkpt lat="-16.7352" lon="-151.45398">
        <ele>234.699097</ele>
        <time>2012-05-13T20:47:35Z</time>
      </trkpt>
      <trkpt lat="-16.73534" lon="-151.4541">
        <ele>232.295776</ele>
        <time>2012-05-13T20:47:53Z</time>
      </trkpt>
      <trkpt lat="-16.73545" lon="-151.45415">
        <ele>229.411743</ele>
        <time>2012-05-13T20:48:08Z</time>
      </trkpt>
      <trkpt lat="-16.73558" lon="-151.45418">
        <ele>227.489136</ele>
        <time>2012-05-13T20:48:23Z</time>
      </trkpt>
      <trkpt lat="-16.73575" lon="-151.45414">
        <ele>227.008545</ele>
        <time>2012-05-13T20:48:40Z</time>
      </trkpt>
      <trkpt lat="-16.73583" lon="-151.45404">
        <ele>224.605225</ele>
        <time>2012-05-13T20:48:55Z</time>
      </trkpt>
      <trkpt lat="-16.73581" lon="-151.45399">
        <ele>222.682495</ele>
        <time>2012-05-13T20:49:08Z</time>
      </trkpt>
      <trkpt lat="-16.73575" lon="-151.45396">
        <ele>222.201782</ele>
        <time>2012-05-13T20:49:23Z</time>
      </trkpt>
      <trkpt lat="-16.73561" lon="-151.45395">
        <ele>218.83728</ele>
        <time>2012-05-13T20:49:34Z</time>
      </trkpt>
      <trkpt lat="-16.73549" lon="-151.45389">
        <ele>216.914673</ele>
        <time>2012-05-13T20:49:47Z</time>
      </trkpt>
      <trkpt lat="-16.73548" lon="-151.45386">
        <ele>215.953247</ele>
        <time>2012-05-13T20:49:51Z</time>
      </trkpt>
      <trkpt lat="-16.73536" lon="-151.45374">
        <ele>215.953247</ele>
        <time>2012-05-13T20:50:03Z</time>
      </trkpt>
      <trkpt lat="-16.73542" lon="-151.45359">
        <ele>213.069336</ele>
        <time>2012-05-13T20:50:23Z</time>
      </trkpt>
      <trkpt lat="-16.73556" lon="-151.45362">
        <ele>210.185425</ele>
        <time>2012-05-13T20:50:37Z</time>
      </trkpt>
      <trkpt lat="-16.73568" lon="-151.45366">
        <ele>208.743408</ele>
        <time>2012-05-13T20:50:50Z</time>
      </trkpt>
      <trkpt lat="-16.73579" lon="-151.45366">
        <ele>207.782104</ele>
        <time>2012-05-13T20:50:59Z</time>
      </trkpt>
      <trkpt lat="-16.73595" lon="-151.4536">
        <ele>206.820679</ele>
        <time>2012-05-13T20:51:12Z</time>
      </trkpt>
      <trkpt lat="-16.73597" lon="-151.45357">
        <ele>204.41748</ele>
        <time>2012-05-13T20:51:27Z</time>
      </trkpt>
      <trkpt lat="-16.73596" lon="-151.45353">
        <ele>203.456177</ele>
        <time>2012-05-13T20:51:32Z</time>
      </trkpt>
      <trkpt lat="-16.736" lon="-151.45342">
        <ele>202.494873</ele>
        <time>2012-05-13T20:51:46Z</time>
      </trkpt>
      <trkpt lat="-16.73601" lon="-151.45341">
        <ele>202.014282</ele>
        <time>2012-05-13T20:51:47Z</time>
      </trkpt>
      <trkpt lat="-16.73615" lon="-151.4533">
        <ele>200.572266</ele>
        <time>2012-05-13T20:52:01Z</time>
      </trkpt>
      <trkpt lat="-16.73631" lon="-151.45323">
        <ele>199.61084</ele>
        <time>2012-05-13T20:52:18Z</time>
      </trkpt>
      <trkpt lat="-16.7365" lon="-151.45315">
        <ele>198.168945</ele>
        <time>2012-05-13T20:52:32Z</time>
      </trkpt>
      <trkpt lat="-16.73651" lon="-151.45305">
        <ele>196.246338</ele>
        <time>2012-05-13T20:52:43Z</time>
      </trkpt>
      <trkpt lat="-16.73649" lon="-151.45289">
        <ele>197.688232</ele>
        <time>2012-05-13T20:52:55Z</time>
      </trkpt>
      <trkpt lat="-16.73653" lon="-151.45276">
        <ele>195.765625</ele>
        <time>2012-05-13T20:53:09Z</time>
      </trkpt>
      <trkpt lat="-16.73656" lon="-151.45265">
        <ele>194.804321</ele>
        <time>2012-05-13T20:53:19Z</time>
      </trkpt>
      <trkpt lat="-16.73659" lon="-151.45256">
        <ele>193.362305</ele>
        <time>2012-05-13T20:53:27Z</time>
      </trkpt>
      <trkpt lat="-16.73669" lon="-151.45248">
        <ele>192.401123</ele>
        <time>2012-05-13T20:53:39Z</time>
      </trkpt>
      <trkpt lat="-16.73684" lon="-151.45248">
        <ele>189.997681</ele>
        <time>2012-05-13T20:53:55Z</time>
      </trkpt>
      <trkpt lat="-16.73702" lon="-151.45245">
        <ele>187.11377</ele>
        <time>2012-05-13T20:54:13Z</time>
      </trkpt>
      <trkpt lat="-16.73718" lon="-151.45238">
        <ele>184.229858</ele>
        <time>2012-05-13T20:54:29Z</time>
      </trkpt>
      <trkpt lat="-16.73731" lon="-151.45233">
        <ele>183.749023</ele>
        <time>2012-05-13T20:54:45Z</time>
      </trkpt>
      <trkpt lat="-16.73749" lon="-151.4523">
        <ele>181.826416</ele>
        <time>2012-05-13T20:55:00Z</time>
      </trkpt>
      <trkpt lat="-16.73751" lon="-151.4523">
        <ele>181.826416</ele>
        <time>2012-05-13T20:55:02Z</time>
      </trkpt>
      <trkpt lat="-16.73754" lon="-151.45231">
        <ele>181.345825</ele>
        <time>2012-05-13T20:55:05Z</time>
      </trkpt>
      <trkpt lat="-16.73766" lon="-151.45234">
        <ele>180.384521</ele>
        <time>2012-05-13T20:55:17Z</time>
      </trkpt>
      <trkpt lat="-16.73776" lon="-151.45233">
        <ele>178.461914</ele>
        <time>2012-05-13T20:55:33Z</time>
      </trkpt>
      <trkpt lat="-16.7377" lon="-151.45228">
        <ele>177.02002</ele>
        <time>2012-05-13T20:55:44Z</time>
      </trkpt>
      <trkpt lat="-16.73767" lon="-151.45229">
        <ele>176.058594</ele>
        <time>2012-05-13T20:55:51Z</time>
      </trkpt>
      <trkpt lat="-16.73765" lon="-151.45225">
        <ele>174.616577</ele>
        <time>2012-05-13T20:55:55Z</time>
      </trkpt>
      <trkpt lat="-16.73762" lon="-151.45222">
        <ele>173.655273</ele>
        <time>2012-05-13T20:56:00Z</time>
      </trkpt>
      <trkpt lat="-16.73753" lon="-151.45214">
        <ele>170.290649</ele>
        <time>2012-05-13T20:56:17Z</time>
      </trkpt>
      <trkpt lat="-16.73741" lon="-151.45207">
        <ele>169.329468</ele>
        <time>2012-05-13T20:56:30Z</time>
      </trkpt>
      <trkpt lat="-16.73739" lon="-151.45206">
        <ele>168.848755</ele>
        <time>2012-05-13T20:56:32Z</time>
      </trkpt>
      <trkpt lat="-16.73731" lon="-151.45202">
        <ele>166.926025</ele>
        <time>2012-05-13T20:56:40Z</time>
      </trkpt>
      <trkpt lat="-16.73721" lon="-151.45193">
        <ele>165.484131</ele>
        <time>2012-05-13T20:56:56Z</time>
      </trkpt>
      <trkpt lat="-16.73712" lon="-151.45189">
        <ele>164.522705</ele>
        <time>2012-05-13T20:57:10Z</time>
      </trkpt>
      <trkpt lat="-16.73707" lon="-151.45185">
        <ele>163.561523</ele>
        <time>2012-05-13T20:57:19Z</time>
      </trkpt>
      <trkpt lat="-16.73684" lon="-151.45174">
        <ele>160.67749</ele>
        <time>2012-05-13T20:57:36Z</time>
      </trkpt>
      <trkpt lat="-16.73665" lon="-151.45173">
        <ele>160.196899</ele>
        <time>2012-05-13T20:57:50Z</time>
      </trkpt>
      <trkpt lat="-16.73651" lon="-151.45175">
        <ele>158.754761</ele>
        <time>2012-05-13T20:58:04Z</time>
      </trkpt>
      <trkpt lat="-16.73638" lon="-151.45178">
        <ele>159.716187</ele>
        <time>2012-05-13T20:58:17Z</time>
      </trkpt>
      <trkpt lat="-16.73621" lon="-151.45187">
        <ele>160.196899</ele>
        <time>2012-05-13T20:58:31Z</time>
      </trkpt>
      <trkpt lat="-16.7362" lon="-151.45191">
        <ele>160.196899</ele>
        <time>2012-05-13T20:58:34Z</time>
      </trkpt>
      <trkpt lat="-16.73618" lon="-151.45205">
        <ele>160.67749</ele>
        <time>2012-05-13T20:58:44Z</time>
      </trkpt>
      <trkpt lat="-16.73616" lon="-151.45216">
        <ele>161.638916</ele>
        <time>2012-05-13T20:58:53Z</time>
      </trkpt>
      <trkpt lat="-16.73615" lon="-151.4522">
        <ele>162.119507</ele>
        <time>2012-05-13T20:58:56Z</time>
      </trkpt>
      <trkpt lat="-16.73607" lon="-151.45238">
        <ele>163.080811</ele>
        <time>2012-05-13T20:59:12Z</time>
      </trkpt>
      <trkpt lat="-16.73603" lon="-151.45243">
        <ele>164.042114</ele>
        <time>2012-05-13T20:59:19Z</time>
      </trkpt>
      <trkpt lat="-16.73591" lon="-151.45242">
        <ele>164.522705</ele>
        <time>2012-05-13T20:59:33Z</time>
      </trkpt>
      <trkpt lat="-16.73586" lon="-151.45233">
        <ele>165.003418</ele>
        <time>2012-05-13T20:59:44Z</time>
      </trkpt>
      <trkpt lat="-16.73585" lon="-151.45232">
        <ele>165.003418</ele>
        <time>2012-05-13T20:59:45Z</time>
      </trkpt>
      <trkpt lat="-16.73577" lon="-151.45221">
        <ele>164.522705</ele>
        <time>2012-05-13T20:59:55Z</time>
      </trkpt>
      <trkpt lat="-16.73562" lon="-151.45206">
        <ele>162.119507</ele>
        <time>2012-05-13T21:00:12Z</time>
      </trkpt>
      <trkpt lat="-16.73559" lon="-151.45188">
        <ele>159.716187</ele>
        <time>2012-05-13T21:00:28Z</time>
      </trkpt>
      <trkpt lat="-16.73572" lon="-151.45179">
        <ele>159.235474</ele>
        <time>2012-05-13T21:00:42Z</time>
      </trkpt>
      <trkpt lat="-16.73573" lon="-151.45176">
        <ele>159.235474</ele>
        <time>2012-05-13T21:00:58Z</time>
      </trkpt>
      <trkpt lat="-16.73568" lon="-151.45163">
        <ele>157.793579</ele>
        <time>2012-05-13T21:01:12Z</time>
      </trkpt>
      <trkpt lat="-16.73563" lon="-151.45156">
        <ele>156.351562</ele>
        <time>2012-05-13T21:01:24Z</time>
      </trkpt>
      <trkpt lat="-16.73555" lon="-151.4515">
        <ele>154.909546</ele>
        <time>2012-05-13T21:01:35Z</time>
      </trkpt>
      <trkpt lat="-16.73547" lon="-151.4514">
        <ele>152.506348</ele>
        <time>2012-05-13T21:01:50Z</time>
      </trkpt>
      <trkpt lat="-16.73537" lon="-151.45133">
        <ele>150.103027</ele>
        <time>2012-05-13T21:02:03Z</time>
      </trkpt>
      <trkpt lat="-16.73532" lon="-151.45121">
        <ele>148.18042</ele>
        <time>2012-05-13T21:02:17Z</time>
      </trkpt>
      <trkpt lat="-16.73529" lon="-151.45111">
        <ele>145.7771</ele>
        <time>2012-05-13T21:02:28Z</time>
      </trkpt>
      <trkpt lat="-16.73528" lon="-151.451">
        <ele>144.335205</ele>
        <time>2012-05-13T21:02:42Z</time>
      </trkpt>
      <trkpt lat="-16.73524" lon="-151.45086">
        <ele>143.85437</ele>
        <time>2012-05-13T21:02:57Z</time>
      </trkpt>
      <trkpt lat="-16.73517" lon="-151.45077">
        <ele>140.489868</ele>
        <time>2012-05-13T21:03:12Z</time>
      </trkpt>
      <trkpt lat="-16.73513" lon="-151.45066">
        <ele>137.125244</ele>
        <time>2012-05-13T21:03:25Z</time>
      </trkpt>
      <trkpt lat="-16.73507" lon="-151.45055">
        <ele>136.16394</ele>
        <time>2012-05-13T21:03:36Z</time>
      </trkpt>
      <trkpt lat="-16.73499" lon="-151.45041">
        <ele>134.721924</ele>
        <time>2012-05-13T21:03:52Z</time>
      </trkpt>
      <trkpt lat="-16.73488" lon="-151.45022">
        <ele>134.241211</ele>
        <time>2012-05-13T21:04:09Z</time>
      </trkpt>
      <trkpt lat="-16.73476" lon="-151.45004">
        <ele>132.318604</ele>
        <time>2012-05-13T21:04:26Z</time>
      </trkpt>
      <trkpt lat="-16.73475" lon="-151.45003">
        <ele>131.3573</ele>
        <time>2012-05-13T21:04:27Z</time>
      </trkpt>
      <trkpt lat="-16.73467" lon="-151.44992">
        <ele>127.992554</ele>
        <time>2012-05-13T21:04:39Z</time>
      </trkpt>
      <trkpt lat="-16.73452" lon="-151.44975">
        <ele>125.589355</ele>
        <time>2012-05-13T21:04:56Z</time>
      </trkpt>
      <trkpt lat="-16.73448" lon="-151.4497">
        <ele>125.108765</ele>
        <time>2012-05-13T21:05:01Z</time>
      </trkpt>
      <trkpt lat="-16.73433" lon="-151.4496">
        <ele>123.186157</ele>
        <time>2012-05-13T21:05:18Z</time>
      </trkpt>
      <trkpt lat="-16.73418" lon="-151.4495">
        <ele>121.744141</ele>
        <time>2012-05-13T21:05:34Z</time>
      </trkpt>
      <trkpt lat="-16.73415" lon="-151.44948">
        <ele>119.821411</ele>
        <time>2012-05-13T21:05:37Z</time>
      </trkpt>
      <trkpt lat="-16.73399" lon="-151.44943">
        <ele>116.9375</ele>
        <time>2012-05-13T21:05:52Z</time>
      </trkpt>
      <trkpt lat="-16.73393" lon="-151.44942">
        <ele>115.014893</ele>
        <time>2012-05-13T21:05:58Z</time>
      </trkpt>
      <trkpt lat="-16.73374" lon="-151.44934">
        <ele>113.572998</ele>
        <time>2012-05-13T21:06:17Z</time>
      </trkpt>
      <trkpt lat="-16.73364" lon="-151.44923">
        <ele>109.727661</ele>
        <time>2012-05-13T21:06:29Z</time>
      </trkpt>
      <trkpt lat="-16.73363" lon="-151.44923">
        <ele>109.727661</ele>
        <time>2012-05-13T21:06:30Z</time>
      </trkpt>
      <trkpt lat="-16.73353" lon="-151.44911">
        <ele>107.805054</ele>
        <time>2012-05-13T21:06:43Z</time>
      </trkpt>
      <trkpt lat="-16.73338" lon="-151.44896">
        <ele>105.882446</ele>
        <time>2012-05-13T21:07:01Z</time>
      </trkpt>
      <trkpt lat="-16.73315" lon="-151.44885">
        <ele>104.921021</ele>
        <time>2012-05-13T21:07:21Z</time>
      </trkpt>
      <trkpt lat="-16.73291" lon="-151.44891">
        <ele>104.44043</ele>
        <time>2012-05-13T21:07:41Z</time>
      </trkpt>
      <trkpt lat="-16.73267" lon="-151.44893">
        <ele>103.959717</ele>
        <time>2012-05-13T21:08:00Z</time>
      </trkpt>
      <trkpt lat="-16.73245" lon="-151.44896">
        <ele>102.5177</ele>
        <time>2012-05-13T21:08:18Z</time>
      </trkpt>
      <trkpt lat="-16.73226" lon="-151.44892">
        <ele>101.075684</ele>
        <time>2012-05-13T21:08:35Z</time>
      </trkpt>
      <trkpt lat="-16.73228" lon="-151.44884">
        <ele>101.556396</ele>
        <time>2012-05-13T21:08:42Z</time>
      </trkpt>
      <trkpt lat="-16.7323" lon="-151.44881">
        <ele>100.595093</ele>
        <time>2012-05-13T21:08:45Z</time>
      </trkpt>
      <trkpt lat="-16.73233" lon="-151.44881">
        <ele>101.075684</ele>
        <time>2012-05-13T21:08:51Z</time>
      </trkpt>
      <trkpt lat="-16.73249" lon="-151.44873">
        <ele>98.191895</ele>
        <time>2012-05-13T21:09:08Z</time>
      </trkpt>
      <trkpt lat="-16.73253" lon="-151.44871">
        <ele>98.191895</ele>
        <time>2012-05-13T21:09:23Z</time>
      </trkpt>
      <trkpt lat="-16.73269" lon="-151.44861">
        <ele>95.788452</ele>
        <time>2012-05-13T21:09:40Z</time>
      </trkpt>
      <trkpt lat="-16.73287" lon="-151.44854">
        <ele>93.865845</ele>
        <time>2012-05-13T21:09:58Z</time>
      </trkpt>
      <trkpt lat="-16.73295" lon="-151.4485">
        <ele>92.42395</ele>
        <time>2012-05-13T21:10:14Z</time>
      </trkpt>
      <trkpt lat="-16.73316" lon="-151.44841">
        <ele>90.501343</ele>
        <time>2012-05-13T21:10:36Z</time>
      </trkpt>
      <trkpt lat="-16.73332" lon="-151.44836">
        <ele>88.098022</ele>
        <time>2012-05-13T21:10:52Z</time>
      </trkpt>
      <trkpt lat="-16.73336" lon="-151.44837">
        <ele>88.098022</ele>
        <time>2012-05-13T21:10:55Z</time>
      </trkpt>
      <trkpt lat="-16.73343" lon="-151.44833">
        <ele>87.136597</ele>
        <time>2012-05-13T21:11:02Z</time>
      </trkpt>
      <trkpt lat="-16.73349" lon="-151.44833">
        <ele>86.656006</ele>
        <time>2012-05-13T21:11:16Z</time>
      </trkpt>
      <trkpt lat="-16.73336" lon="-151.44821">
        <ele>83.771973</ele>
        <time>2012-05-13T21:11:34Z</time>
      </trkpt>
      <trkpt lat="-16.73336" lon="-151.4482">
        <ele>84.733398</ele>
        <time>2012-05-13T21:11:35Z</time>
      </trkpt>
      <trkpt lat="-16.73327" lon="-151.44813">
        <ele>82.810791</ele>
        <time>2012-05-13T21:11:52Z</time>
      </trkpt>
      <trkpt lat="-16.73326" lon="-151.44813">
        <ele>82.330078</ele>
        <time>2012-05-13T21:11:54Z</time>
      </trkpt>
      <trkpt lat="-16.73317" lon="-151.44811">
        <ele>80.407471</ele>
        <time>2012-05-13T21:12:12Z</time>
      </trkpt>
      <trkpt lat="-16.73313" lon="-151.44809">
        <ele>79.926636</ele>
        <time>2012-05-13T21:12:27Z</time>
      </trkpt>
      <trkpt lat="-16.73307" lon="-151.44806">
        <ele>79.446045</ele>
        <time>2012-05-13T21:12:42Z</time>
      </trkpt>
      <trkpt lat="-16.73302" lon="-151.44807">
        <ele>77.523438</ele>
        <time>2012-05-13T21:13:00Z</time>
      </trkpt>
      <trkpt lat="-16.73299" lon="-151.44805">
        <ele>77.042847</ele>
        <time>2012-05-13T21:13:03Z</time>
      </trkpt>
      <trkpt lat="-16.73291" lon="-151.44799">
        <ele>76.562134</ele>
        <time>2012-05-13T21:13:13Z</time>
      </trkpt>
      <trkpt lat="-16.73279" lon="-151.44794">
        <ele>75.120239</ele>
        <time>2012-05-13T21:13:24Z</time>
      </trkpt>
      <trkpt lat="-16.73263" lon="-151.44789">
        <ele>71.755493</ele>
        <time>2012-05-13T21:13:39Z</time>
      </trkpt>
      <trkpt lat="-16.73264" lon="-151.44784">
        <ele>72.716919</ele>
        <time>2012-05-13T21:14:02Z</time>
      </trkpt>
      <trkpt lat="-16.73263" lon="-151.44785">
        <ele>72.716919</ele>
        <time>2012-05-13T21:14:18Z</time>
      </trkpt>
      <trkpt lat="-16.73256" lon="-151.44788">
        <ele>71.755493</ele>
        <time>2012-05-13T21:14:24Z</time>
      </trkpt>
      <trkpt lat="-16.73243" lon="-151.44788">
        <ele>69.832886</ele>
        <time>2012-05-13T21:14:38Z</time>
      </trkpt>
      <trkpt lat="-16.73228" lon="-151.44787">
        <ele>68.390869</ele>
        <time>2012-05-13T21:14:51Z</time>
      </trkpt>
      <trkpt lat="-16.73216" lon="-151.44792">
        <ele>66.948975</ele>
        <time>2012-05-13T21:15:05Z</time>
      </trkpt>
      <trkpt lat="-16.73199" lon="-151.44794">
        <ele>65.50708</ele>
        <time>2012-05-13T21:15:19Z</time>
      </trkpt>
      <trkpt lat="-16.73176" lon="-151.44795">
        <ele>63.584351</ele>
        <time>2012-05-13T21:15:36Z</time>
      </trkpt>
      <trkpt lat="-16.73171" lon="-151.44797">
        <ele>62.622925</ele>
        <time>2012-05-13T21:15:40Z</time>
      </trkpt>
      <trkpt lat="-16.73155" lon="-151.44804">
        <ele>61.18103</ele>
        <time>2012-05-13T21:15:55Z</time>
      </trkpt>
      <trkpt lat="-16.73154" lon="-151.44804">
        <ele>61.18103</ele>
        <time>2012-05-13T21:15:56Z</time>
      </trkpt>
      <trkpt lat="-16.73137" lon="-151.44804">
        <ele>60.700317</ele>
        <time>2012-05-13T21:16:11Z</time>
      </trkpt>
      <trkpt lat="-16.73124" lon="-151.44808">
        <ele>60.219727</ele>
        <time>2012-05-13T21:16:24Z</time>
      </trkpt>
      <trkpt lat="-16.73123" lon="-151.44809">
        <ele>59.739136</ele>
        <time>2012-05-13T21:16:25Z</time>
      </trkpt>
      <trkpt lat="-16.73101" lon="-151.44822">
        <ele>58.297119</ele>
        <time>2012-05-13T21:16:46Z</time>
      </trkpt>
      <trkpt lat="-16.731" lon="-151.44824">
        <ele>58.77771</ele>
        <time>2012-05-13T21:16:48Z</time>
      </trkpt>
      <trkpt lat="-16.73091" lon="-151.4483">
        <ele>58.297119</ele>
        <time>2012-05-13T21:16:59Z</time>
      </trkpt>
      <trkpt lat="-16.73089" lon="-151.44825">
        <ele>57.816528</ele>
        <time>2012-05-13T21:17:06Z</time>
      </trkpt>
      <trkpt lat="-16.73092" lon="-151.44818">
        <ele>56.855103</ele>
        <time>2012-05-13T21:17:20Z</time>
      </trkpt>
      <trkpt lat="-16.731" lon="-151.44806">
        <ele>54.932373</ele>
        <time>2012-05-13T21:17:34Z</time>
      </trkpt>
      <trkpt lat="-16.73101" lon="-151.44793">
        <ele>54.932373</ele>
        <time>2012-05-13T21:17:44Z</time>
      </trkpt>
      <trkpt lat="-16.73103" lon="-151.4479">
        <ele>53.490479</ele>
        <time>2012-05-13T21:17:47Z</time>
      </trkpt>
      <trkpt lat="-16.73104" lon="-151.44789">
        <ele>53.971191</ele>
        <time>2012-05-13T21:17:48Z</time>
      </trkpt>
      <trkpt lat="-16.73124" lon="-151.44771">
        <ele>52.529175</ele>
        <time>2012-05-13T21:18:09Z</time>
      </trkpt>
      <trkpt lat="-16.73135" lon="-151.44768">
        <ele>51.087158</ele>
        <time>2012-05-13T21:18:20Z</time>
      </trkpt>
      <trkpt lat="-16.73144" lon="-151.44762">
        <ele>49.645264</ele>
        <time>2012-05-13T21:18:33Z</time>
      </trkpt>
      <trkpt lat="-16.73144" lon="-151.44757">
        <ele>49.164551</ele>
        <time>2012-05-13T21:18:39Z</time>
      </trkpt>
      <trkpt lat="-16.73141" lon="-151.44754">
        <ele>48.68396</ele>
        <time>2012-05-13T21:18:43Z</time>
      </trkpt>
      <trkpt lat="-16.73123" lon="-151.44751">
        <ele>47.722534</ele>
        <time>2012-05-13T21:19:00Z</time>
      </trkpt>
      <trkpt lat="-16.73117" lon="-151.44751">
        <ele>45.799927</ele>
        <time>2012-05-13T21:19:05Z</time>
      </trkpt>
      <trkpt lat="-16.73094" lon="-151.44754">
        <ele>44.358032</ele>
        <time>2012-05-13T21:19:26Z</time>
      </trkpt>
      <trkpt lat="-16.73075" lon="-151.44755">
        <ele>41.954712</ele>
        <time>2012-05-13T21:19:43Z</time>
      </trkpt>
      <trkpt lat="-16.73051" lon="-151.44753">
        <ele>39.070679</ele>
        <time>2012-05-13T21:20:04Z</time>
      </trkpt>
      <trkpt lat="-16.73035" lon="-151.44752">
        <ele>37.628662</ele>
        <time>2012-05-13T21:20:20Z</time>
      </trkpt>
      <trkpt lat="-16.73018" lon="-151.44747">
        <ele>34.744873</ele>
        <time>2012-05-13T21:20:37Z</time>
      </trkpt>
      <trkpt lat="-16.73017" lon="-151.44748">
        <ele>35.225464</ele>
        <time>2012-05-13T21:20:38Z</time>
      </trkpt>
      <trkpt lat="-16.73" lon="-151.44748">
        <ele>32.341553</ele>
        <time>2012-05-13T21:20:55Z</time>
      </trkpt>
      <trkpt lat="-16.72983" lon="-151.44744">
        <ele>30.899536</ele>
        <time>2012-05-13T21:21:11Z</time>
      </trkpt>
      <trkpt lat="-16.72965" lon="-151.44738">
        <ele>29.45752</ele>
        <time>2012-05-13T21:21:26Z</time>
      </trkpt>
      <trkpt lat="-16.72941" lon="-151.44729">
        <ele>28.015503</ele>
        <time>2012-05-13T21:21:47Z</time>
      </trkpt>
      <trkpt lat="-16.72937" lon="-151.44728">
        <ele>28.496216</ele>
        <time>2012-05-13T21:21:53Z</time>
      </trkpt>
      <trkpt lat="-16.7293" lon="-151.4473">
        <ele>27.534912</ele>
        <time>2012-05-13T21:21:59Z</time>
      </trkpt>
      <trkpt lat="-16.72916" lon="-151.44727">
        <ele>26.092896</ele>
        <time>2012-05-13T21:22:11Z</time>
      </trkpt>
      <trkpt lat="-16.72907" lon="-151.44722">
        <ele>26.573608</ele>
        <time>2012-05-13T21:22:20Z</time>
      </trkpt>
      <trkpt lat="-16.72884" lon="-151.44711">
        <ele>25.612305</ele>
        <time>2012-05-13T21:22:41Z</time>
      </trkpt>
      <trkpt lat="-16.72868" lon="-151.44694">
        <ele>26.573608</ele>
        <time>2012-05-13T21:22:58Z</time>
      </trkpt>
      <trkpt lat="-16.72868" lon="-151.44675">
        <ele>25.612305</ele>
        <time>2012-05-13T21:23:14Z</time>
      </trkpt>
      <trkpt lat="-16.72859" lon="-151.44661">
        <ele>25.612305</ele>
        <time>2012-05-13T21:23:27Z</time>
      </trkpt>
      <trkpt lat="-16.72848" lon="-151.44654">
        <ele>25.612305</ele>
        <time>2012-05-13T21:23:43Z</time>
      </trkpt>
      <trkpt lat="-16.72834" lon="-151.44641">
        <ele>25.612305</ele>
        <time>2012-05-13T21:23:58Z</time>
      </trkpt>
      <trkpt lat="-16.72818" lon="-151.44628">
        <ele>25.131714</ele>
        <time>2012-05-13T21:24:14Z</time>
      </trkpt>
      <trkpt lat="-16.72816" lon="-151.44626">
        <ele>25.131714</ele>
        <time>2012-05-13T21:24:16Z</time>
      </trkpt>
      <trkpt lat="-16.72799" lon="-151.44614">
        <ele>26.092896</ele>
        <time>2012-05-13T21:24:33Z</time>
      </trkpt>
      <trkpt lat="-16.72785" lon="-151.44603">
        <ele>26.573608</ele>
        <time>2012-05-13T21:24:52Z</time>
      </trkpt>
    </trkseg>
  </trk>
</gpx>